Alden, NY (14004)

8:17 AM EST on February 07, 2016 (GMT -0500)
Millgrove | | Change Station
CLOSE
Current Station
Personal Weather Station
Location: Alden, NY
Elevation: 774 ft
Nearby Weather Stations

Elev 774 ft 42.95 °N, 78.55 °W | Updated 2 seconds ago

Partly Cloudy
Partly Cloudy
29.7 °F
Feels Like 30 °F
N
0.0
Wind Variable Wind from SSE
Gusts 0.0 mph

Today
High -- | Low -- °F
--% Chance of Precip.
Yesterday
High -- | Low -- °F
Precip. -- in
Pressure 30.10 in
Visibility 10.0 miles
Clouds Scattered Clouds 3200 ft
Scattered Clouds 10000 ft
Scattered Clouds 30000 ft
Windchill 30 °F
Dew Point 25 °F
Humidity 81%
Rainfall 0.00 in
Snow Depth Not available.
7:22 AM 5:34 PM
Waning Crescent, 2% visible
METAR KBUF 071254Z 17006KT 10SM SCT032 SCT100 SCT300 M01/M06 A3007 RMK AO2 SLP191 T10061056
Pressure 30.10 in
Visibility 10.0 miles
Clouds Scattered Clouds 3200 ft
Scattered Clouds 10000 ft
Scattered Clouds 30000 ft
Windchill 30 °F
Dew Point 25 °F
Humidity 81%
Rainfall 0.00 in
Snow Depth Not available.
7:22 AM 5:34 PM
Waning Crescent, 2% visible
METAR KBUF 071254Z 17006KT 10SM SCT032 SCT100 SCT300 M01/M06 A3007 RMK AO2 SLP191 T10061056

10-Day Weather Forecast

Almanac

Astronomy

Feb. 07, 2016 Rise Set
Actual Time
Civil Twilight
Nautical Twilight
Astronomical Twilight
Moon
Length of Visible Light
Length of Day
Tomorrow will be .
, % of the Moon is Illuminated

Today's Extremes

State Highs State Lows

Community

WunderPhotos

Upload Photos

1,891,190 photos uploaded!

WunderBlog® & News

Nearby

Air Quality

  Air Quality AQ Index Pollutant
Not available.

Snow Depth

Station Depth Elevation

Earthquake Activity

City Distance Mag. Time & Date
Minimum magnitude displayed is 2.5.

Coastal Water Temperatures

Place Temperature

Stations

Nearby Weather Stations

Station Location Temp. Windchill Dew Point Humidity Wind Precip. Elev Updated Type
                   

Watches & Warnings

There are currently no watches in effect.